Time;durP1;ratioP1;P1;durP2;ratioP2;P2;SDS_P1;SDS_P2;PMS_P1;PMS_P2;Temp;Humidity;BMP_temperature;BMP_pressure;BME280_temperature;BME280_humidity;BME280_pressure;Samples;Min_cycle;Max_cycle;Signal;HPM_P1;HPM_P2
2023/04/20 00:01:38;;;;;;;8.60;3.83;;;9.80;98.50;;;;;;7290299;19;20183;-81
2023/04/20 00:04:04;;;;;;;8.67;3.80;;;9.70;98.70;;;;;;7290278;19;20675;-80
2023/04/20 00:06:31;;;;;;;6.80;3.23;;;9.70;98.80;;;;;;7289231;19;20282;-81
2023/04/20 00:08:57;;;;;;;11.93;3.60;;;9.70;99.10;;;;;;7288050;19;20185;-81
2023/04/20 00:11:23;;;;;;;6.73;3.23;;;9.70;98.90;;;;;;7290709;19;20195;-80
2023/04/20 00:13:49;;;;;;;9.47;3.63;;;9.70;99.20;;;;;;7312328;19;20259;-81
2023/04/20 00:16:15;;;;;;;9.53;3.47;;;9.70;99.30;;;;;;7290522;19;20688;-81
2023/04/20 00:18:40;;;;;;;9.43;3.50;;;9.60;99.30;;;;;;7289410;19;20215;-80
2023/04/20 00:21:06;;;;;;;8.63;3.50;;;9.60;99.50;;;;;;7290204;19;20223;-81
2023/04/20 00:23:32;;;;;;;8.37;3.70;;;9.50;99.80;;;;;;7280637;19;20191;-80
2023/04/20 00:25:58;;;;;;;7.10;3.23;;;9.50;99.90;;;;;;7289746;19;20248;-80
2023/04/20 00:28:23;;;;;;;8.03;3.63;;;9.50;99.90;;;;;;7287933;19;20631;-80
2023/04/20 00:30:49;;;;;;;6.80;3.37;;;9.50;99.90;;;;;;7310431;19;20184;-80
2023/04/20 00:33:15;;;;;;;8.13;3.33;;;9.40;99.90;;;;;;7289825;19;20686;-80
2023/04/20 00:35:41;;;;;;;10.33;3.87;;;9.40;99.90;;;;;;7289759;19;20172;-80
2023/04/20 00:38:07;;;;;;;11.23;3.80;;;9.30;99.90;;;;;;7287900;19;20555;-81
2023/04/20 00:40:34;;;;;;;8.20;3.70;;;9.30;99.90;;;;;;7288952;19;20211;-80
2023/04/20 00:43:20;;;;;;;9.87;3.40;;;9.30;99.90;;;;;;7289474;19;20190;-80
2023/04/20 00:45:46;;;;;;;7.20;3.47;;;9.30;99.90;;;;;;7289190;19;20188;-80
2023/04/20 00:48:12;;;;;;;8.63;3.43;;;9.20;99.90;;;;;;7287234;19;20243;-80
2023/04/20 00:50:39;;;;;;;9.13;3.70;;;9.20;99.90;;;;;;7287773;19;20242;-81
2023/04/20 00:53:10;;;;;;;12.33;3.70;;;9.10;99.90;;;;;;7287355;19;20254;-80
2023/04/20 00:55:37;;;;;;;9.47;3.47;;;9.10;99.90;;;;;;7289347;19;20189;-81
2023/04/20 00:58:03;;;;;;;7.20;3.27;;;9.10;99.90;;;;;;7288355;19;20217;-81
2023/04/20 01:00:32;;;;;;;6.90;3.40;;;9.20;99.90;;;;;;7287817;19;20196;-81
2023/04/20 01:02:58;;;;;;;11.90;3.67;;;9.00;99.90;;;;;;7289049;19;20222;-81
2023/04/20 01:05:24;;;;;;;7.43;3.80;;;9.00;99.90;;;;;;7287082;19;20652;-81
2023/04/20 01:07:50;;;;;;;10.43;3.87;;;9.10;99.90;;;;;;7309640;19;20253;-79
2023/04/20 01:10:16;;;;;;;7.33;3.20;;;8.90;99.90;;;;;;7288576;19;20236;-81
2023/04/20 01:12:42;;;;;;;9.30;3.70;;;9.00;99.90;;;;;;7287784;19;20264;-81
2023/04/20 01:15:10;;;;;;;9.63;3.53;;;9.00;99.90;;;;;;7287909;19;20179;-80
2023/04/20 01:17:39;;;;;;;8.20;3.70;;;9.00;99.90;;;;;;7286245;19;20191;-81
2023/04/20 01:20:11;;;;;;;7.97;3.47;;;8.90;99.90;;;;;;7285006;19;20181;-81
2023/04/20 01:22:49;;;;;;;7.80;3.80;;;8.80;99.90;;;;;;7287551;19;20254;-79
2023/04/20 01:25:16;;;;;;;9.97;3.83;;;8.80;99.90;;;;;;7287184;19;20180;-80
2023/04/20 01:27:42;;;;;;;7.50;3.47;;;8.80;99.90;;;;;;7287357;19;20191;-80
2023/04/20 01:30:09;;;;;;;8.57;3.80;;;8.60;99.90;;;;;;7286849;19;20189;-80
2023/04/20 01:32:37;;;;;;;8.97;3.97;;;8.60;99.90;;;;;;7285872;19;20204;-80
2023/04/20 01:35:03;;;;;;;9.80;3.63;;;8.60;99.90;;;;;;7287507;19;20190;-79
2023/04/20 01:37:28;;;;;;;8.97;3.53;;;8.60;99.90;;;;;;7287356;19;20197;-80
2023/04/20 01:39:54;;;;;;;9.23;3.70;;;8.60;99.90;;;;;;7284840;19;20193;-80
2023/04/20 01:42:21;;;;;;;7.10;3.53;;;8.70;99.90;;;;;;7307378;19;20191;-78
2023/04/20 01:44:48;;;;;;;12.33;4.87;;;8.60;99.90;;;;;;7308607;19;20192;-80
2023/04/20 01:47:14;;;;;;;8.63;3.67;;;8.60;99.90;;;;;;7285524;19;20192;-80
2023/04/20 01:49:39;;;;;;;8.40;3.90;;;8.50;99.90;;;;;;7284891;19;20645;-80
2023/04/20 01:52:05;;;;;;;7.60;3.67;;;8.40;99.90;;;;;;7284763;19;20198;-80
2023/04/20 01:54:31;;;;;;;8.60;3.40;;;8.40;99.90;;;;;;7286295;19;20554;-80
2023/04/20 01:56:57;;;;;;;7.27;3.83;;;8.50;99.90;;;;;;7286949;19;20204;-80
2023/04/20 01:59:23;;;;;;;12.53;4.10;;;8.50;99.90;;;;;;7283866;19;20191;-79
2023/04/20 02:01:48;;;;;;;8.87;3.90;;;8.60;99.90;;;;;;7308279;19;20203;-80
2023/04/20 02:04:14;;;;;;;9.70;3.73;;;8.50;99.90;;;;;;7285715;19;20536;-80
2023/04/20 02:06:40;;;;;;;8.23;3.60;;;8.60;99.90;;;;;;7285428;19;21343;-79
2023/04/20 02:09:08;;;;;;;11.93;4.27;;;8.50;99.90;;;;;;7286609;19;20208;-80
2023/04/20 02:11:34;;;;;;;9.20;3.50;;;8.50;99.90;;;;;;7285893;19;20655;-80
2023/04/20 02:14:00;;;;;;;9.33;3.80;;;8.40;99.90;;;;;;7285505;19;20194;-80
2023/04/20 02:16:28;;;;;;;10.43;3.97;;;8.50;99.90;;;;;;7286848;19;20195;-79
2023/04/20 02:18:54;;;;;;;8.40;3.70;;;8.40;99.90;;;;;;7283140;19;20196;-79
2023/04/20 02:21:20;;;;;;;12.37;3.43;;;8.40;99.90;;;;;;7308289;19;20203;-80
2023/04/20 02:23:45;;;;;;;8.43;3.97;;;8.30;99.90;;;;;;7285543;19;20238;-79
2023/04/20 02:26:11;;;;;;;9.67;3.57;;;8.40;99.90;;;;;;7286366;19;20296;-80
2023/04/20 02:28:39;;;;;;;8.57;3.33;;;8.40;99.90;;;;;;7284331;19;20214;-80
2023/04/20 02:31:05;;;;;;;8.60;3.50;;;8.40;99.90;;;;;;7285879;19;20198;-80
2023/04/20 02:33:31;;;;;;;9.83;3.60;;;8.20;99.90;;;;;;7284281;19;20200;-79
2023/04/20 02:35:56;;;;;;;10.20;3.27;;;8.30;99.90;;;;;;7285556;19;20295;-80
2023/04/20 02:38:22;;;;;;;8.40;3.60;;;8.20;99.90;;;;;;7288311;19;20215;-81
2023/04/20 02:40:48;;;;;;;8.33;3.43;;;8.20;99.90;;;;;;7307319;19;20194;-81
2023/04/20 02:43:15;;;;;;;6.90;3.60;;;8.20;99.90;;;;;;7284466;19;20661;-80
2023/04/20 02:45:41;;;;;;;7.03;3.60;;;8.20;99.90;;;;;;7284318;19;20201;-80
2023/04/20 02:48:08;;;;;;;9.80;3.73;;;8.30;99.90;;;;;;7283761;19;20575;-80
2023/04/20 02:50:36;;;;;;;8.57;3.63;;;8.20;99.90;;;;;;7284338;19;20191;-80
2023/04/20 02:53:20;;;;;;;10.93;3.70;;;8.10;99.90;;;;;;7284960;19;20191;-78
2023/04/20 02:55:52;;;;;;;11.07;3.67;;;8.10;99.90;;;;;;7263393;19;20270;-80
2023/04/20 02:58:27;;;;;;;11.30;3.77;;;8.10;99.90;;;;;;7285457;19;20194;-80
2023/04/20 03:01:17;;;;;;;8.97;3.30;;;8.10;99.90;;;;;;7285208;19;20183;-81
2023/04/20 03:03:45;;;;;;;10.77;3.60;;;8.10;99.90;;;;;;7284405;19;20190;-80
2023/04/20 03:06:11;;;;;;;11.17;3.90;;;7.90;99.90;;;;;;7284070;19;20204;-81
2023/04/20 03:08:39;;;;;;;8.83;3.70;;;7.90;99.90;;;;;;7283867;19;20191;-80
2023/04/20 03:11:25;;;;;;;11.13;3.60;;;8.00;99.90;;;;;;7261140;19;20688;-80
2023/04/20 03:13:51;;;;;;;8.47;3.40;;;8.00;99.90;;;;;;7302017;19;20180;-78
2023/04/20 03:16:17;;;;;;;8.50;3.60;;;7.90;99.90;;;;;;7294630;19;20207;-80
2023/04/20 03:18:46;;;;;;;8.73;3.53;;;7.90;99.90;;;;;;7284602;19;20184;-80
2023/04/20 03:21:13;;;;;;;8.13;3.40;;;7.80;99.90;;;;;;7290518;19;20186;-80
2023/04/20 03:23:39;;;;;;;8.27;3.60;;;7.80;99.90;;;;;;7287255;19;20535;-80
2023/04/20 03:26:06;;;;;;;8.70;3.30;;;7.80;99.90;;;;;;7285157;19;20676;-80
2023/04/20 03:29:02;;;;;;;11.23;3.33;;;7.70;99.90;;;;;;7185641;19;2004631;-81
2023/04/20 03:31:29;;;;;;;7.97;3.20;;;7.90;99.90;;;;;;7291509;19;20187;-80
2023/04/20 03:33:56;;;;;;;8.10;3.20;;;8.00;99.90;;;;;;7290904;19;20248;-80
2023/04/20 03:36:22;;;;;;;7.30;3.30;;;8.10;99.90;;;;;;7299329;19;20192;-80
2023/04/20 03:38:47;;;;;;;7.97;3.33;;;8.10;99.90;;;;;;7312513;19;20202;-80
2023/04/20 03:41:13;;;;;;;6.80;3.23;;;8.00;99.90;;;;;;7291146;19;20580;-80
2023/04/20 03:43:40;;;;;;;11.37;3.50;;;8.00;99.90;;;;;;7288855;19;20193;-80
2023/04/20 03:46:06;;;;;;;8.13;3.37;;;8.00;99.90;;;;;;7290331;19;20207;-81
2023/04/20 03:48:33;;;;;;;10.00;3.50;;;7.90;99.90;;;;;;7287688;19;20190;-81
2023/04/20 03:50:59;;;;;;;7.80;3.30;;;7.70;99.90;;;;;;7288132;19;20210;-80
2023/04/20 03:53:25;;;;;;;8.17;3.73;;;7.60;99.90;;;;;;7287346;19;20530;-80
2023/04/20 03:55:51;;;;;;;8.00;3.33;;;7.50;99.90;;;;;;7303333;19;20192;-80
2023/04/20 03:58:20;;;;;;;9.27;3.23;;;7.20;99.90;;;;;;7310886;19;20190;-80
2023/04/20 04:01:06;;;;;;;8.33;3.40;;;7.20;99.90;;;;;;7189443;19;2004666;-80
2023/04/20 04:03:34;;;;;;;11.40;3.60;;;7.20;99.90;;;;;;7289241;19;20199;-80
2023/04/20 04:06:02;;;;;;;8.33;3.40;;;7.10;99.90;;;;;;7289514;19;20334;-80
2023/04/20 04:08:30;;;;;;;9.93;3.57;;;6.90;99.90;;;;;;7289602;19;20194;-80
2023/04/20 04:10:56;;;;;;;10.60;3.40;;;6.80;99.90;;;;;;7289893;19;20196;-80
2023/04/20 04:13:22;;;;;;;10.70;3.40;;;6.70;99.90;;;;;;7299487;19;20235;-79
2023/04/20 04:15:48;;;;;;;10.90;3.20;;;6.80;99.90;;;;;;7309552;19;20194;-80
2023/04/20 04:18:14;;;;;;;8.33;3.30;;;6.90;99.90;;;;;;7288896;19;20219;-80
2023/04/20 04:20:41;;;;;;;7.77;3.00;;;7.10;99.90;;;;;;7288158;19;20204;-80
2023/04/20 04:23:09;;;;;;;9.50;3.37;;;7.00;99.90;;;;;;7289295;19;20217;-80
2023/04/20 04:25:39;;;;;;;10.10;3.47;;;7.00;99.90;;;;;;7288262;19;20202;-80
2023/04/20 04:28:06;;;;;;;7.97;3.60;;;7.00;99.90;;;;;;7287910;19;20219;-81
2023/04/20 04:30:34;;;;;;;9.53;3.50;;;7.20;99.90;;;;;;7286451;19;20524;-80
2023/04/20 04:33:03;;;;;;;8.20;3.77;;;7.30;99.90;;;;;;7288204;19;20187;-80
2023/04/20 04:35:30;;;;;;;8.63;3.63;;;7.30;99.90;;;;;;7288194;19;20666;-81
2023/04/20 04:37:56;;;;;;;10.33;3.77;;;7.40;99.90;;;;;;7287885;19;20205;-80
2023/04/20 04:40:22;;;;;;;11.07;3.70;;;7.40;99.90;;;;;;7299950;19;20741;-79
2023/04/20 04:42:51;;;;;;;8.77;3.83;;;7.40;99.90;;;;;;7305249;19;20181;-78
2023/04/20 04:45:17;;;;;;;8.50;3.77;;;7.40;99.90;;;;;;7298724;19;20317;-81
2023/04/20 04:47:45;;;;;;;12.67;4.00;;;7.40;99.90;;;;;;7287865;19;20185;-80
2023/04/20 04:50:11;;;;;;;10.20;3.90;;;7.60;99.90;;;;;;7286752;19;20202;-80
2023/04/20 04:52:37;;;;;;;10.80;3.60;;;7.60;99.90;;;;;;7287527;19;20269;-79
2023/04/20 04:55:07;;;;;;;9.63;3.80;;;7.70;99.90;;;;;;7286768;19;20199;-80
2023/04/20 04:57:32;;;;;;;7.60;3.23;;;7.40;99.90;;;;;;7288070;19;20210;-80
2023/04/20 04:59:58;;;;;;;11.60;3.53;;;7.40;99.90;;;;;;7288559;19;20190;-79
2023/04/20 05:02:24;;;;;;;8.63;3.30;;;7.50;99.90;;;;;;7287280;19;20290;-79
2023/04/20 05:04:49;;;;;;;8.77;3.50;;;7.60;99.90;;;;;;7310618;19;20280;-80
2023/04/20 05:07:16;;;;;;;10.37;4.00;;;7.50;99.90;;;;;;7286739;19;20183;-81
2023/04/20 05:09:41;;;;;;;9.23;3.63;;;7.50;99.90;;;;;;7287712;19;20663;-80
2023/04/20 05:12:07;;;;;;;9.50;3.17;;;7.40;99.90;;;;;;7287175;19;20192;-80
2023/04/20 05:14:34;;;;;;;9.10;3.70;;;7.40;99.90;;;;;;7287658;19;20198;-80
2023/04/20 05:17:00;;;;;;;8.90;3.00;;;7.50;99.90;;;;;;7288778;19;20186;-79
2023/04/20 05:19:25;;;;;;;11.60;3.43;;;7.60;99.90;;;;;;7287658;19;20260;-79
2023/04/20 05:21:51;;;;;;;14.93;5.50;;;7.60;99.90;;;;;;7311820;19;20207;-78
2023/04/20 05:24:18;;;;;;;9.73;3.70;;;7.50;99.90;;;;;;7297179;19;20196;-80
2023/04/20 05:26:45;;;;;;;9.97;3.47;;;7.60;99.90;;;;;;7285552;19;20194;-79
2023/04/20 05:29:10;;;;;;;10.17;3.90;;;7.70;99.90;;;;;;7287775;19;20206;-81
2023/04/20 05:31:36;;;;;;;10.90;4.00;;;7.80;99.90;;;;;;7284103;19;20662;-80
2023/04/20 05:34:02;;;;;;;12.07;3.57;;;7.80;99.90;;;;;;7286243;19;20187;-80
2023/04/20 05:36:29;;;;;;;9.90;3.70;;;7.90;99.90;;;;;;7286745;19;20199;-81
2023/04/20 05:38:54;;;;;;;9.87;3.70;;;7.80;99.90;;;;;;7286808;19;20263;-81
2023/04/20 05:41:25;;;;;;;12.07;3.40;;;7.90;99.90;;;;;;7306713;19;20192;-79
2023/04/20 05:43:53;;;;;;;8.40;3.60;;;8.00;99.90;;;;;;7284283;19;20187;-78
2023/04/20 05:46:18;;;;;;;10.20;3.43;;;8.10;99.90;;;;;;7306848;19;20194;-84
2023/04/20 05:48:44;;;;;;;10.70;3.60;;;8.20;99.90;;;;;;7285876;19;20183;-79
2023/04/20 05:51:10;;;;;;;9.13;3.70;;;8.10;99.90;;;;;;7286025;19;20189;-80
2023/04/20 05:53:36;;;;;;;10.77;3.67;;;8.20;99.90;;;;;;7287132;19;20244;-78
2023/04/20 05:56:02;;;;;;;8.73;3.50;;;8.20;99.90;;;;;;7285779;19;20537;-78
2023/04/20 05:58:29;;;;;;;8.53;3.50;;;8.20;99.90;;;;;;7286658;19;20203;-78
2023/04/20 06:00:55;;;;;;;8.27;3.33;;;8.10;99.90;;;;;;7285240;19;20291;-78
2023/04/20 06:03:21;;;;;;;9.37;3.43;;;8.20;99.90;;;;;;7306768;19;20670;-78
2023/04/20 06:05:47;;;;;;;9.93;4.13;;;8.30;99.90;;;;;;7285673;19;20192;-79
2023/04/20 06:08:13;;;;;;;11.33;4.10;;;8.40;99.90;;;;;;7286322;19;20186;-78
2023/04/20 06:10:39;;;;;;;10.00;4.10;;;8.50;99.90;;;;;;7284712;19;20640;-79
2023/04/20 06:13:05;;;;;;;13.10;4.10;;;8.50;99.90;;;;;;7285067;19;20190;-79
2023/04/20 06:15:30;;;;;;;12.53;3.83;;;8.60;99.90;;;;;;7284802;19;20187;-79
2023/04/20 06:17:56;;;;;;;10.33;3.80;;;8.70;99.90;;;;;;7285791;19;20198;-79
2023/04/20 06:20:22;;;;;;;11.17;3.77;;;8.60;99.90;;;;;;7298470;19;20182;-79
2023/04/20 06:22:48;;;;;;;11.20;3.63;;;8.50;99.90;;;;;;7305054;19;20186;-79
2023/04/20 06:25:14;;;;;;;11.20;4.03;;;8.70;99.90;;;;;;7284173;19;20247;-79
2023/04/20 06:27:40;;;;;;;9.30;4.00;;;8.70;99.90;;;;;;7285425;19;20267;-79
2023/04/20 06:30:06;;;;;;;8.17;3.83;;;8.70;99.90;;;;;;7285346;19;20257;-79
2023/04/20 06:32:32;;;;;;;10.63;3.97;;;8.70;99.90;;;;;;7285184;19;20204;-79
2023/04/20 06:34:58;;;;;;;11.47;4.23;;;8.60;99.90;;;;;;7284460;19;20179;-79
2023/04/20 06:37:24;;;;;;;14.43;4.50;;;8.70;99.90;;;;;;7285245;19;20560;-79
2023/04/20 06:39:53;;;;;;;9.10;3.63;;;8.70;99.90;;;;;;7305220;19;20196;-79
2023/04/20 06:42:20;;;;;;;12.43;4.40;;;8.70;99.90;;;;;;7286814;19;20189;-79
2023/04/20 06:44:46;;;;;;;10.17;4.30;;;8.80;99.90;;;;;;7284616;19;20183;-79
2023/04/20 06:47:11;;;;;;;9.07;4.00;;;9.00;99.90;;;;;;7300221;19;20181;-79
2023/04/20 06:49:38;;;;;;;8.03;3.90;;;9.10;99.90;;;;;;7316334;19;20185;-80
2023/04/20 06:52:04;;;;;;;10.60;4.77;;;9.20;99.90;;;;;;7317077;19;20187;-79
2023/04/20 06:54:31;;;;;;;15.70;4.97;;;9.00;99.90;;;;;;7315160;19;20292;-79
2023/04/20 06:56:57;;;;;;;13.13;4.93;;;8.70;99.90;;;;;;7316926;19;20192;-78
2023/04/20 06:59:22;;;;;;;8.63;4.90;;;8.30;99.90;;;;;;7301984;19;20192;-79
2023/04/20 07:01:48;;;;;;;11.47;5.17;;;8.00;99.90;;;;;;7304128;19;20191;-80
2023/04/20 07:04:14;;;;;;;9.53;4.40;;;7.90;99.90;;;;;;7284088;19;20326;-79
2023/04/20 07:06:39;;;;;;;13.17;5.50;;;7.90;99.90;;;;;;7280819;19;20564;-79
2023/04/20 07:09:07;;;;;;;11.73;5.27;;;7.90;99.90;;;;;;7284047;19;20260;-79
2023/04/20 07:11:33;;;;;;;10.03;5.27;;;8.00;99.90;;;;;;7284125;19;20211;-79
2023/04/20 07:13:58;;;;;;;12.00;5.30;;;8.20;99.90;;;;;;7284013;19;20189;-79
2023/04/20 07:16:24;;;;;;;12.10;5.70;;;8.30;99.90;;;;;;7282569;19;20205;-78
2023/04/20 07:18:50;;;;;;;11.20;5.50;;;8.50;99.90;;;;;;7305098;19;20191;-79
2023/04/20 07:21:16;;;;;;;13.57;6.10;;;8.50;99.90;;;;;;7284498;19;20187;-79
2023/04/20 07:23:41;;;;;;;13.03;5.40;;;8.60;99.90;;;;;;7282284;19;20200;-80
2023/04/20 07:26:07;;;;;;;10.17;5.10;;;8.60;99.90;;;;;;7281725;19;20186;-79
2023/04/20 07:28:33;;;;;;;12.67;5.40;;;8.60;99.90;;;;;;7282398;19;20197;-79
2023/04/20 07:30:59;;;;;;;11.77;5.30;;;8.70;99.90;;;;;;7283429;19;20226;-79
2023/04/20 07:33:25;;;;;;;15.13;5.67;;;8.60;99.90;;;;;;7282813;19;20215;-78
2023/04/20 07:35:51;;;;;;;13.20;6.10;;;8.60;99.90;;;;;;7306706;19;20195;-78
2023/04/20 07:38:17;;;;;;;12.80;6.37;;;8.60;99.90;;;;;;7283246;19;20203;-79
2023/04/20 07:40:42;;;;;;;12.20;6.30;;;8.60;99.90;;;;;;7283469;19;20200;-79
2023/04/20 07:43:08;;;;;;;10.70;5.80;;;8.70;99.90;;;;;;7282582;19;20187;-79
2023/04/20 07:45:34;;;;;;;12.47;5.80;;;8.70;99.90;;;;;;7281814;19;20201;-79
2023/04/20 07:48:01;;;;;;;10.27;5.83;;;8.70;99.90;;;;;;7282039;19;20191;-79
2023/04/20 07:50:26;;;;;;;13.63;6.40;;;8.60;99.90;;;;;;7283366;19;20199;-79
2023/04/20 07:52:52;;;;;;;12.47;6.70;;;8.60;99.90;;;;;;7298435;19;20211;-79
2023/04/20 07:55:18;;;;;;;18.90;6.43;;;8.70;99.90;;;;;;7298148;19;20236;-80
2023/04/20 07:57:44;;;;;;;11.17;5.63;;;8.90;99.90;;;;;;7283042;19;20211;-79
2023/04/20 08:00:11;;;;;;;14.27;6.40;;;8.90;99.90;;;;;;7282203;19;20565;-79
2023/04/20 08:02:40;;;;;;;12.37;5.93;;;9.10;99.90;;;;;;7282006;19;20194;-79
2023/04/20 08:05:08;;;;;;;16.37;6.53;;;9.20;99.90;;;;;;7282449;19;20598;-79
2023/04/20 08:07:34;;;;;;;10.60;5.60;;;9.30;99.90;;;;;;7281420;19;20259;-79
2023/04/20 08:10:01;;;;;;;12.93;5.77;;;9.40;99.90;;;;;;7282157;19;20200;-79
2023/04/20 08:12:27;;;;;;;10.03;5.80;;;9.50;99.90;;;;;;7281408;19;20208;-79
2023/04/20 08:14:53;;;;;;;12.50;5.80;;;9.30;99.90;;;;;;7291043;19;20199;-79
2023/04/20 08:17:19;;;;;;;12.77;5.97;;;9.20;99.90;;;;;;7308732;19;20188;-79
2023/04/20 08:19:45;;;;;;;17.10;6.63;;;9.10;99.90;;;;;;7289600;19;20679;-79
2023/04/20 08:22:11;;;;;;;13.13;6.17;;;9.10;99.90;;;;;;7288541;19;20202;-79
2023/04/20 08:24:37;;;;;;;12.20;6.17;;;8.90;99.90;;;;;;7288990;19;20187;-79
2023/04/20 08:27:03;;;;;;;10.17;5.97;;;9.00;99.90;;;;;;7288269;19;20531;-79
2023/04/20 08:29:29;;;;;;;11.83;6.00;;;9.00;99.90;;;;;;7288185;19;20200;-79
2023/04/20 08:31:54;;;;;;;11.63;5.80;;;8.90;99.90;;;;;;7286396;19;20193;-79
2023/04/20 08:34:23;;;;;;;15.47;6.30;;;8.90;99.90;;;;;;7310736;19;20221;-79
2023/04/20 08:36:49;;;;;;;13.43;5.80;;;9.00;99.90;;;;;;7290323;19;20188;-80
2023/04/20 08:39:19;;;;;;;15.60;6.20;;;9.20;99.90;;;;;;7288834;19;20196;-80
2023/04/20 08:41:45;;;;;;;13.60;6.03;;;9.30;99.90;;;;;;7286963;19;20200;-79
2023/04/20 08:44:11;;;;;;;13.40;6.20;;;9.40;99.90;;;;;;7288686;19;20199;-79
2023/04/20 08:46:39;;;;;;;12.67;6.60;;;9.40;99.90;;;;;;7286384;19;20204;-79
2023/04/20 08:49:10;;;;;;;10.13;5.97;;;9.50;99.90;;;;;;7287170;19;20199;-80
2023/04/20 08:51:38;;;;;;;12.60;6.33;;;9.60;99.90;;;;;;7288378;19;20189;-79
2023/04/20 08:54:04;;;;;;;11.13;5.57;;;9.50;99.90;;;;;;7287598;19;20200;-79
2023/04/20 08:56:35;;;;;;;11.23;6.03;;;9.60;99.90;;;;;;7288911;19;20196;-79
2023/04/20 08:59:04;;;;;;;11.33;6.07;;;9.60;99.90;;;;;;7291718;19;20614;-79
2023/04/20 09:01:32;;;;;;;11.47;5.67;;;9.70;99.90;;;;;;7290320;19;20221;-79
2023/04/20 09:04:00;;;;;;;13.03;5.97;;;9.60;99.90;;;;;;7291375;19;20288;-81
2023/04/20 09:06:26;;;;;;;13.97;6.10;;;9.70;99.90;;;;;;7288875;19;20547;-79
2023/04/20 09:08:53;;;;;;;15.73;5.70;;;9.60;99.90;;;;;;7306335;19;20184;-79
2023/04/20 09:11:31;;;;;;;11.80;5.10;;;9.50;99.90;;;;;;7304112;19;20251;-79
2023/04/20 09:14:14;;;;;;;11.37;6.50;;;9.40;99.90;;;;;;7265878;19;20190;-80
2023/04/20 09:17:03;;;;;;;15.23;6.20;;;9.40;99.90;;;;;;7287288;19;20184;-79
2023/04/20 09:19:30;;;;;;;11.20;6.50;;;9.50;99.90;;;;;;7184925;19;2004601;-79
2023/04/20 09:22:04;;;;;;;13.73;6.73;;;9.70;99.90;;;;;;7286171;19;20220;-79
2023/04/20 09:24:35;;;;;;;14.87;7.20;;;9.80;99.90;;;;;;7287829;19;20196;-79
2023/04/20 09:27:12;;;;;;;15.00;6.40;;;9.90;99.90;;;;;;7284674;19;20227;-80
2023/04/20 09:29:38;;;;;;;15.90;7.20;;;9.90;99.90;;;;;;7287822;19;20223;-80
2023/04/20 09:32:04;;;;;;;13.30;6.77;;;9.70;99.90;;;;;;7287472;19;20196;-79
2023/04/20 09:34:30;;;;;;;13.07;5.90;;;9.70;99.90;;;;;;7286673;19;20188;-79
2023/04/20 09:36:56;;;;;;;15.00;6.20;;;9.80;99.90;;;;;;7287486;19;20192;-79
2023/04/20 09:39:24;;;;;;;10.70;5.73;;;10.00;99.90;;;;;;7309820;19;20192;-80
2023/04/20 09:41:51;;;;;;;14.03;6.27;;;10.30;99.90;;;;;;7285934;19;20181;-80
2023/04/20 09:44:18;;;;;;;12.90;6.67;;;10.70;99.90;;;;;;7288514;19;20195;-79
2023/04/20 09:46:45;;;;;;;12.53;5.67;;;11.30;99.90;;;;;;7283394;19;20225;-80
2023/04/20 09:49:12;;;;;;;11.13;6.00;;;11.50;99.90;;;;;;7286949;19;20652;-79
2023/04/20 09:51:40;;;;;;;11.73;5.90;;;11.70;99.90;;;;;;7287747;19;20193;-79
2023/04/20 09:54:07;;;;;;;15.40;5.87;;;12.00;99.90;;;;;;7287433;19;20215;-79
2023/04/20 09:56:34;;;;;;;10.43;5.67;;;12.10;99.90;;;;;;7286406;19;20193;-79
2023/04/20 09:59:01;;;;;;;12.10;5.63;;;11.90;99.90;;;;;;7286420;19;20193;-78
2023/04/20 10:01:30;;;;;;;12.87;6.13;;;11.50;99.90;;;;;;7284399;19;20188;-79
2023/04/20 10:03:58;;;;;;;13.23;5.93;;;11.40;99.90;;;;;;7283936;19;20205;-78
2023/04/20 10:06:31;;;;;;;13.30;5.87;;;11.30;99.90;;;;;;7294531;19;20913;-78
2023/04/20 10:09:00;;;;;;;13.60;7.33;;;11.20;99.90;;;;;;7285866;19;20182;-78
2023/04/20 10:11:42;;;;;;;13.40;6.00;;;11.20;99.90;;;;;;7285173;19;20201;-79
2023/04/20 10:14:23;;;;;;;11.83;5.87;;;11.20;99.90;;;;;;7275924;19;20209;-78
2023/04/20 10:17:05;;;;;;;11.23;6.10;;;11.10;99.90;;;;;;7286182;19;20655;-79
2023/04/20 10:19:42;;;;;;;10.87;6.00;;;11.30;99.90;;;;;;7184958;19;2004469;-79
2023/04/20 10:22:29;;;;;;;10.43;5.77;;;11.50;99.90;;;;;;7289337;19;20191;-79
2023/04/20 10:24:55;;;;;;;10.53;5.53;;;11.70;99.90;;;;;;7265446;19;20187;-79
2023/04/20 10:27:21;;;;;;;11.83;6.00;;;11.90;99.90;;;;;;7308007;19;20190;-80
2023/04/20 10:29:47;;;;;;;11.67;6.20;;;11.90;99.90;;;;;;7284867;19;20243;-80
2023/04/20 10:32:28;;;;;;;14.43;6.57;;;11.70;99.90;;;;;;7286440;19;20202;-79
2023/04/20 10:35:06;;;;;;;10.33;6.03;;;11.50;99.90;;;;;;7265022;19;20189;-79
2023/04/20 10:37:32;;;;;;;12.80;6.10;;;11.40;99.90;;;;;;7284614;19;20192;-80
2023/04/20 10:39:59;;;;;;;10.77;5.80;;;11.20;99.90;;;;;;7280401;19;20249;-79
2023/04/20 10:42:25;;;;;;;13.80;6.33;;;10.90;99.90;;;;;;7284343;19;20193;-79
2023/04/20 10:44:52;;;;;;;11.97;6.17;;;10.60;99.90;;;;;;7306553;19;20181;-79
2023/04/20 10:47:29;;;;;;;11.60;6.20;;;10.50;99.90;;;;;;7284717;19;20190;-79
2023/04/20 10:50:11;;;;;;;13.10;6.33;;;10.50;99.90;;;;;;7262330;19;20215;-79
2023/04/20 10:52:39;;;;;;;10.03;5.50;;;10.60;99.90;;;;;;7284250;19;20195;-80
2023/04/20 10:55:16;;;;;;;10.47;5.33;;;10.50;99.90;;;;;;7284753;19;20185;-78
2023/04/20 10:57:44;;;;;;;9.30;5.17;;;10.50;99.90;;;;;;7281873;19;20192;-79
2023/04/20 11:00:16;;;;;;;10.40;4.93;;;10.40;99.90;;;;;;7283731;19;20198;-78
2023/04/20 11:02:51;;;;;;;10.53;5.63;;;10.50;99.90;;;;;;7283334;19;20641;-79
2023/04/20 11:05:17;;;;;;;9.63;4.93;;;10.60;99.90;;;;;;7285284;19;20184;-79
2023/04/20 11:07:54;;;;;;;9.13;4.37;;;10.70;99.90;;;;;;7281968;19;20210;-79
2023/04/20 11:10:24;;;;;;;10.63;5.27;;;10.60;99.90;;;;;;7284999;19;20181;-79
2023/04/20 11:12:50;;;;;;;8.27;4.70;;;10.40;99.90;;;;;;7285263;19;20186;-78
2023/04/20 11:15:17;;;;;;;9.13;5.13;;;10.30;99.90;;;;;;7285286;19;20201;-79
2023/04/20 11:17:43;;;;;;;9.80;5.30;;;10.30;99.90;;;;;;7283922;19;20202;-79
2023/04/20 11:20:15;;;;;;;10.37;5.90;;;10.40;99.90;;;;;;7284681;19;20539;-78
2023/04/20 11:22:42;;;;;;;10.77;5.60;;;10.50;99.90;;;;;;7283837;19;20281;-79
2023/04/20 11:25:09;;;;;;;13.27;5.17;;;10.50;99.90;;;;;;7282771;19;20194;-79
2023/04/20 11:27:36;;;;;;;10.77;5.73;;;10.70;99.90;;;;;;7285236;19;20188;-79
2023/04/20 11:30:04;;;;;;;10.40;5.10;;;10.80;99.90;;;;;;7284983;19;20695;-79
2023/04/20 11:32:34;;;;;;;10.67;5.30;;;10.80;99.90;;;;;;7283818;19;20236;-78
2023/04/20 11:35:06;;;;;;;10.10;6.27;;;10.90;99.90;;;;;;7283567;19;20639;-78
2023/04/20 11:37:32;;;;;;;12.17;5.67;;;11.10;99.90;;;;;;7283496;19;20187;-78
2023/04/20 11:40:08;;;;;;;10.73;6.20;;;11.20;99.90;;;;;;7282394;19;20213;-78
2023/04/20 11:42:34;;;;;;;9.77;5.77;;;11.30;99.90;;;;;;7283526;19;20185;-79
2023/04/20 11:45:00;;;;;;;11.47;6.10;;;11.60;99.90;;;;;;7283710;19;20252;-79
2023/04/20 11:47:26;;;;;;;16.80;6.53;;;11.90;99.90;;;;;;7283042;19;20728;-78
2023/04/20 11:49:52;;;;;;;10.37;5.70;;;12.30;99.90;;;;;;7307080;19;20271;-79
2023/04/20 11:52:18;;;;;;;10.97;5.90;;;12.30;99.90;;;;;;7290738;19;20188;-79
2023/04/20 11:54:44;;;;;;;10.20;5.50;;;12.30;99.90;;;;;;7289379;19;20191;-79
2023/04/20 11:57:10;;;;;;;10.37;5.83;;;12.00;99.90;;;;;;7290342;19;20265;-79
2023/04/20 11:59:36;;;;;;;10.40;6.10;;;11.70;99.90;;;;;;7289878;19;20198;-79
2023/04/20 12:02:02;;;;;;;9.73;6.03;;;11.50;99.90;;;;;;7290720;19;20194;-79
2023/04/20 12:04:33;;;;;;;11.17;5.93;;;11.20;99.90;;;;;;7289978;19;20258;-79
2023/04/20 12:07:01;;;;;;;10.43;5.80;;;11.00;99.90;;;;;;7289295;19;20188;-80
2023/04/20 12:09:27;;;;;;;10.40;5.63;;;11.00;99.90;;;;;;7289492;19;20218;-78
2023/04/20 12:11:53;;;;;;;10.27;5.27;;;11.20;99.90;;;;;;7311753;19;20186;-79
2023/04/20 12:14:19;;;;;;;9.73;5.83;;;11.60;99.90;;;;;;7290689;19;20271;-79
2023/04/20 12:16:44;;;;;;;10.10;5.73;;;12.10;99.90;;;;;;7288155;19;20263;-79
2023/04/20 12:19:10;;;;;;;11.60;5.77;;;12.80;99.90;;;;;;7289987;19;20192;-79
2023/04/20 12:21:36;;;;;;;10.67;5.90;;;12.90;99.90;;;;;;7288116;19;20197;-79
2023/04/20 12:24:03;;;;;;;10.60;6.00;;;13.00;99.90;;;;;;7290635;19;20537;-79
2023/04/20 12:26:28;;;;;;;9.70;5.73;;;13.00;99.90;;;;;;7288717;19;20189;-79
2023/04/20 12:28:56;;;;;;;12.03;6.50;;;12.90;99.90;;;;;;7292300;19;20212;-79
2023/04/20 12:31:23;;;;;;;11.00;5.80;;;12.70;99.90;;;;;;7310844;19;20192;-79
2023/04/20 12:33:49;;;;;;;11.93;5.87;;;12.40;99.90;;;;;;7288613;19;20724;-79
2023/04/20 12:36:14;;;;;;;9.17;6.10;;;12.40;99.90;;;;;;7288756;19;20194;-80
2023/04/20 12:38:40;;;;;;;9.00;5.50;;;12.30;99.90;;;;;;7289001;19;20195;-79
2023/04/20 12:41:06;;;;;;;11.77;5.80;;;12.20;99.90;;;;;;7287224;19;20198;-80
2023/04/20 12:43:32;;;;;;;10.53;5.83;;;12.00;99.90;;;;;;7289025;19;20285;-79
2023/04/20 12:45:57;;;;;;;9.90;6.03;;;11.90;99.90;;;;;;7289481;19;20201;-79
2023/04/20 12:48:24;;;;;;;10.73;6.37;;;11.90;99.90;;;;;;7303265;19;20697;-79
2023/04/20 12:50:49;;;;;;;12.20;6.33;;;11.70;99.90;;;;;;7305367;19;20187;-79